Terminal Aerodrome Forecast
Issued by NWS

Home | Current Version | Previous Version | Text Only | Print | Product List | Glossary On
Versions: 1 2 3 4 5 6 7 8 9 10 11 12 13
000
FTAK31 PAJN 060523
TAFAKT
TAF
PAKT 060523Z 0606/0706 16007KT P6SM OVC090
     FM061300 14010KT P6SM SCT025 OVC050
     FM061800 14014G21KT P6SM -RA SCT025 OVC040
     FM062100 14014G23KT 5SM -RA BR SCT015 OVC030 WS020/18035KT
     FM070100 14012G19KT 5SM -RA BR SCT015 OVC025
      AMD LTD TO CLD VIS AND WIND 0606/0615=

USA.gov is the U.S. government's official web portal to all federal, state and local government web resources and services.